sensor_id;sensor_type;location;lat;lon;timestamp;temperature;humidity
53264;DHT22;39153;52.680;6.172;2024-02-26T00:01:55;4.40;99.90
53264;DHT22;39153;52.680;6.172;2024-02-26T00:04:21;4.50;99.90
53264;DHT22;39153;52.680;6.172;2024-02-26T00:06:47;4.50;99.90
53264;DHT22;39153;52.680;6.172;2024-02-26T00:09:15;4.30;99.90
53264;DHT22;39153;52.680;6.172;2024-02-26T00:11:41;4.40;99.90
53264;DHT22;39153;52.680;6.172;2024-02-26T00:14:07;4.40;99.90
53264;DHT22;39153;52.680;6.172;2024-02-26T00:16:32;4.50;99.90
53264;DHT22;39153;52.680;6.172;2024-02-26T00:18:58;4.50;99.90
53264;DHT22;39153;52.680;6.172;2024-02-26T00:21:24;4.40;99.90
53264;DHT22;39153;52.680;6.172;2024-02-26T00:23:50;4.40;99.90
53264;DHT22;39153;52.680;6.172;2024-02-26T00:26:16;4.40;99.90
53264;DHT22;39153;52.680;6.172;2024-02-26T00:28:43;4.20;99.90
53264;DHT22;39153;52.680;6.172;2024-02-26T00:31:09;4.40;99.90
53264;DHT22;39153;52.680;6.172;2024-02-26T00:33:34;4.30;99.90
53264;DHT22;39153;52.680;6.172;2024-02-26T00:36:00;4.20;99.90
53264;DHT22;39153;52.680;6.172;2024-02-26T00:38:26;4.30;99.90
53264;DHT22;39153;52.680;6.172;2024-02-26T00:40:51;4.00;99.90
53264;DHT22;39153;52.680;6.172;2024-02-26T00:43:17;4.30;99.90
53264;DHT22;39153;52.680;6.172;2024-02-26T00:45:43;4.20;99.90
53264;DHT22;39153;52.680;6.172;2024-02-26T00:48:09;4.30;99.90
53264;DHT22;39153;52.680;6.172;2024-02-26T00:50:34;4.50;99.90
53264;DHT22;39153;52.680;6.172;2024-02-26T00:53:01;4.30;99.90
53264;DHT22;39153;52.680;6.172;2024-02-26T00:55:27;4.40;99.90
53264;DHT22;39153;52.680;6.172;2024-02-26T00:57:52;4.30;99.90
53264;DHT22;39153;52.680;6.172;2024-02-26T01:00:18;4.30;99.90
53264;DHT22;39153;52.680;6.172;2024-02-26T01:02:44;4.00;99.90
53264;DHT22;39153;52.680;6.172;2024-02-26T01:05:12;4.30;99.90
53264;DHT22;39153;52.680;6.172;2024-02-26T01:07:38;4.20;99.90
53264;DHT22;39153;52.680;6.172;2024-02-26T01:10:05;4.00;99.90
53264;DHT22;39153;52.680;6.172;2024-02-26T01:12:32;4.20;99.90
53264;DHT22;39153;52.680;6.172;2024-02-26T01:14:58;4.20;99.90
53264;DHT22;39153;52.680;6.172;2024-02-26T01:17:24;4.00;99.90
53264;DHT22;39153;52.680;6.172;2024-02-26T01:19:49;4.30;99.90
53264;DHT22;39153;52.680;6.172;2024-02-26T01:22:15;4.50;99.90
53264;DHT22;39153;52.680;6.172;2024-02-26T01:24:41;4.30;99.90
53264;DHT22;39153;52.680;6.172;2024-02-26T01:27:06;4.30;99.90
53264;DHT22;39153;52.680;6.172;2024-02-26T01:29:34;4.10;99.90
53264;DHT22;39153;52.680;6.172;2024-02-26T01:32:00;4.10;99.90
53264;DHT22;39153;52.680;6.172;2024-02-26T01:34:25;4.00;99.90
53264;DHT22;39153;52.680;6.172;2024-02-26T01:36:51;4.10;99.90
53264;DHT22;39153;52.680;6.172;2024-02-26T01:39:17;4.30;99.90
53264;DHT22;39153;52.680;6.172;2024-02-26T01:41:43;4.10;99.90
53264;DHT22;39153;52.680;6.172;2024-02-26T01:44:12;3.90;99.90
53264;DHT22;39153;52.680;6.172;2024-02-26T01:46:38;4.20;99.90
53264;DHT22;39153;52.680;6.172;2024-02-26T01:49:03;4.00;99.90
53264;DHT22;39153;52.680;6.172;2024-02-26T01:51:30;4.20;99.90
53264;DHT22;39153;52.680;6.172;2024-02-26T01:53:57;4.10;99.90
53264;DHT22;39153;52.680;6.172;2024-02-26T01:56:23;4.00;99.90
53264;DHT22;39153;52.680;6.172;2024-02-26T01:58:53;3.90;99.90
53264;DHT22;39153;52.680;6.172;2024-02-26T02:01:21;4.40;99.90
53264;DHT22;39153;52.680;6.172;2024-02-26T02:03:47;3.80;99.90
53264;DHT22;39153;52.680;6.172;2024-02-26T02:06:13;3.90;99.90
53264;DHT22;39153;52.680;6.172;2024-02-26T02:08:40;4.00;99.90
53264;DHT22;39153;52.680;6.172;2024-02-26T02:11:06;4.10;99.90
53264;DHT22;39153;52.680;6.172;2024-02-26T02:13:32;4.00;99.90
53264;DHT22;39153;52.680;6.172;2024-02-26T02:15:58;4.00;99.90
53264;DHT22;39153;52.680;6.172;2024-02-26T02:18:23;4.00;99.90
53264;DHT22;39153;52.680;6.172;2024-02-26T02:20:49;3.90;99.90
53264;DHT22;39153;52.680;6.172;2024-02-26T02:23:15;3.90;99.90
53264;DHT22;39153;52.680;6.172;2024-02-26T02:25:40;3.80;99.90
53264;DHT22;39153;52.680;6.172;2024-02-26T02:28:06;3.80;99.90
53264;DHT22;39153;52.680;6.172;2024-02-26T02:30:32;3.80;99.90
53264;DHT22;39153;52.680;6.172;2024-02-26T02:32:58;3.90;99.90
53264;DHT22;39153;52.680;6.172;2024-02-26T02:35:25;3.90;99.90
53264;DHT22;39153;52.680;6.172;2024-02-26T02:37:52;3.90;99.90
53264;DHT22;39153;52.680;6.172;2024-02-26T02:40:18;3.60;99.90
53264;DHT22;39153;52.680;6.172;2024-02-26T02:42:44;3.70;99.90
53264;DHT22;39153;52.680;6.172;2024-02-26T02:45:10;3.60;99.90
53264;DHT22;39153;52.680;6.172;2024-02-26T02:47:36;3.50;99.90
53264;DHT22;39153;52.680;6.172;2024-02-26T02:50:03;3.50;99.90
53264;DHT22;39153;52.680;6.172;2024-02-26T02:52:29;3.60;99.90
53264;DHT22;39153;52.680;6.172;2024-02-26T02:54:54;3.70;99.90
53264;DHT22;39153;52.680;6.172;2024-02-26T02:57:20;3.60;99.90
53264;DHT22;39153;52.680;6.172;2024-02-26T02:59:46;3.80;99.90
53264;DHT22;39153;52.680;6.172;2024-02-26T03:02:12;3.60;99.90
53264;DHT22;39153;52.680;6.172;2024-02-26T03:04:38;3.90;99.90
53264;DHT22;39153;52.680;6.172;2024-02-26T03:07:03;3.60;99.90
53264;DHT22;39153;52.680;6.172;2024-02-26T03:09:29;3.70;99.90
53264;DHT22;39153;52.680;6.172;2024-02-26T03:11:55;4.00;99.90
53264;DHT22;39153;52.680;6.172;2024-02-26T03:14:20;3.90;99.90
53264;DHT22;39153;52.680;6.172;2024-02-26T03:16:46;3.60;99.90
53264;DHT22;39153;52.680;6.172;2024-02-26T03:19:15;3.90;99.90
53264;DHT22;39153;52.680;6.172;2024-02-26T03:21:41;3.60;99.90
53264;DHT22;39153;52.680;6.172;2024-02-26T03:24:07;3.60;99.90
53264;DHT22;39153;52.680;6.172;2024-02-26T03:26:36;3.90;99.90
53264;DHT22;39153;52.680;6.172;2024-02-26T03:29:02;3.70;99.90
53264;DHT22;39153;52.680;6.172;2024-02-26T03:31:28;3.70;99.90
53264;DHT22;39153;52.680;6.172;2024-02-26T03:33:54;4.10;99.90
53264;DHT22;39153;52.680;6.172;2024-02-26T03:36:19;4.00;99.90
53264;DHT22;39153;52.680;6.172;2024-02-26T03:38:47;3.90;99.90
53264;DHT22;39153;52.680;6.172;2024-02-26T03:41:13;3.80;99.90
53264;DHT22;39153;52.680;6.172;2024-02-26T03:43:39;3.80;99.90
53264;DHT22;39153;52.680;6.172;2024-02-26T03:46:09;4.00;99.90
53264;DHT22;39153;52.680;6.172;2024-02-26T03:48:36;4.10;99.90
53264;DHT22;39153;52.680;6.172;2024-02-26T03:51:03;3.70;99.90
53264;DHT22;39153;52.680;6.172;2024-02-26T03:53:28;3.60;99.90
53264;DHT22;39153;52.680;6.172;2024-02-26T03:55:54;4.10;99.90
53264;DHT22;39153;52.680;6.172;2024-02-26T03:58:21;3.60;99.90
53264;DHT22;39153;52.680;6.172;2024-02-26T04:00:46;3.80;99.90
53264;DHT22;39153;52.680;6.172;2024-02-26T04:03:15;4.20;99.90
53264;DHT22;39153;52.680;6.172;2024-02-26T04:05:41;3.70;99.90
53264;DHT22;39153;52.680;6.172;2024-02-26T04:08:06;3.70;99.90
53264;DHT22;39153;52.680;6.172;2024-02-26T04:10:33;4.10;99.90
53264;DHT22;39153;52.680;6.172;2024-02-26T04:13:01;4.20;99.90
53264;DHT22;39153;52.680;6.172;2024-02-26T04:15:26;3.70;99.90
53264;DHT22;39153;52.680;6.172;2024-02-26T04:17:52;4.20;99.90
53264;DHT22;39153;52.680;6.172;2024-02-26T04:20:18;4.10;99.90
53264;DHT22;39153;52.680;6.172;2024-02-26T04:22:44;3.90;99.90
53264;DHT22;39153;52.680;6.172;2024-02-26T04:25:10;3.90;99.90
53264;DHT22;39153;52.680;6.172;2024-02-26T04:27:35;4.20;99.90
53264;DHT22;39153;52.680;6.172;2024-02-26T04:30:01;4.20;99.90
53264;DHT22;39153;52.680;6.172;2024-02-26T04:32:27;4.30;99.90
53264;DHT22;39153;52.680;6.172;2024-02-26T04:34:53;4.30;99.90
53264;DHT22;39153;52.680;6.172;2024-02-26T04:37:19;3.80;99.90
53264;DHT22;39153;52.680;6.172;2024-02-26T04:39:45;3.90;99.90
53264;DHT22;39153;52.680;6.172;2024-02-26T04:42:11;3.70;99.90
53264;DHT22;39153;52.680;6.172;2024-02-26T04:44:36;3.90;99.90
53264;DHT22;39153;52.680;6.172;2024-02-26T04:47:02;3.90;99.90
53264;DHT22;39153;52.680;6.172;2024-02-26T04:49:28;3.80;99.90
53264;DHT22;39153;52.680;6.172;2024-02-26T04:51:53;3.90;99.90
53264;DHT22;39153;52.680;6.172;2024-02-26T04:54:20;3.90;99.90
53264;DHT22;39153;52.680;6.172;2024-02-26T04:56:46;4.40;99.90
53264;DHT22;39153;52.680;6.172;2024-02-26T04:59:11;3.90;99.90
53264;DHT22;39153;52.680;6.172;2024-02-26T05:01:37;4.40;99.90
53264;DHT22;39153;52.680;6.172;2024-02-26T05:04:03;3.90;99.90
53264;DHT22;39153;52.680;6.172;2024-02-26T05:06:29;3.90;99.90
53264;DHT22;39153;52.680;6.172;2024-02-26T05:08:54;4.40;99.90
53264;DHT22;39153;52.680;6.172;2024-02-26T05:11:20;4.30;99.90
53264;DHT22;39153;52.680;6.172;2024-02-26T05:13:47;3.80;99.90
53264;DHT22;39153;52.680;6.172;2024-02-26T05:16:13;3.80;99.90
53264;DHT22;39153;52.680;6.172;2024-02-26T05:18:38;4.30;99.90
53264;DHT22;39153;52.680;6.172;2024-02-26T05:21:04;3.80;99.90
53264;DHT22;39153;52.680;6.172;2024-02-26T05:23:30;4.00;99.90
53264;DHT22;39153;52.680;6.172;2024-02-26T05:25:55;4.70;99.90
53264;DHT22;39153;52.680;6.172;2024-02-26T05:28:21;4.50;99.90
53264;DHT22;39153;52.680;6.172;2024-02-26T05:30:47;3.90;99.90
53264;DHT22;39153;52.680;6.172;2024-02-26T05:33:12;4.50;99.90
53264;DHT22;39153;52.680;6.172;2024-02-26T05:35:38;4.50;99.90
53264;DHT22;39153;52.680;6.172;2024-02-26T05:38:05;3.90;99.90
53264;DHT22;39153;52.680;6.172;2024-02-26T05:40:31;4.50;99.90
53264;DHT22;39153;52.680;6.172;2024-02-26T05:42:57;4.40;99.90
53264;DHT22;39153;52.680;6.172;2024-02-26T05:45:22;4.00;99.90
53264;DHT22;39153;52.680;6.172;2024-02-26T05:47:48;4.50;99.90
53264;DHT22;39153;52.680;6.172;2024-02-26T05:50:15;4.50;99.90
53264;DHT22;39153;52.680;6.172;2024-02-26T05:52:41;4.30;99.90
53264;DHT22;39153;52.680;6.172;2024-02-26T05:55:07;4.30;99.90
53264;DHT22;39153;52.680;6.172;2024-02-26T05:57:34;4.10;99.90
53264;DHT22;39153;52.680;6.172;2024-02-26T06:00:00;4.50;99.90
53264;DHT22;39153;52.680;6.172;2024-02-26T06:02:30;4.60;99.90
53264;DHT22;39153;52.680;6.172;2024-02-26T06:04:56;4.40;99.90
53264;DHT22;39153;52.680;6.172;2024-02-26T06:07:21;4.10;99.90
53264;DHT22;39153;52.680;6.172;2024-02-26T06:09:47;4.40;99.90
53264;DHT22;39153;52.680;6.172;2024-02-26T06:12:14;4.50;99.90
53264;DHT22;39153;52.680;6.172;2024-02-26T06:14:39;4.10;99.90
53264;DHT22;39153;52.680;6.172;2024-02-26T06:17:05;4.40;99.90
53264;DHT22;39153;52.680;6.172;2024-02-26T06:19:32;3.90;99.90
53264;DHT22;39153;52.680;6.172;2024-02-26T06:21:58;4.30;99.90
53264;DHT22;39153;52.680;6.172;2024-02-26T06:24:23;4.50;99.90
53264;DHT22;39153;52.680;6.172;2024-02-26T06:26:49;4.00;99.90
53264;DHT22;39153;52.680;6.172;2024-02-26T06:29:15;4.20;99.90
53264;DHT22;39153;52.680;6.172;2024-02-26T06:31:41;4.10;99.90
53264;DHT22;39153;52.680;6.172;2024-02-26T06:34:06;4.30;99.90
53264;DHT22;39153;52.680;6.172;2024-02-26T06:36:32;4.10;99.90
53264;DHT22;39153;52.680;6.172;2024-02-26T06:38:58;4.30;99.90
53264;DHT22;39153;52.680;6.172;2024-02-26T06:41:24;4.30;99.90
53264;DHT22;39153;52.680;6.172;2024-02-26T06:43:55;4.00;99.90
53264;DHT22;39153;52.680;6.172;2024-02-26T06:46:22;4.00;99.90
53264;DHT22;39153;52.680;6.172;2024-02-26T06:48:48;4.40;99.90
53264;DHT22;39153;52.680;6.172;2024-02-26T06:51:15;4.30;99.90
53264;DHT22;39153;52.680;6.172;2024-02-26T06:53:40;4.60;99.90
53264;DHT22;39153;52.680;6.172;2024-02-26T06:56:06;4.50;99.90
53264;DHT22;39153;52.680;6.172;2024-02-26T06:58:32;4.30;99.90
53264;DHT22;39153;52.680;6.172;2024-02-26T07:00:58;4.10;99.90
53264;DHT22;39153;52.680;6.172;2024-02-26T07:03:24;3.90;99.90
53264;DHT22;39153;52.680;6.172;2024-02-26T07:05:51;3.80;99.90
53264;DHT22;39153;52.680;6.172;2024-02-26T07:08:17;4.30;99.90
53264;DHT22;39153;52.680;6.172;2024-02-26T07:10:43;3.90;99.90
53264;DHT22;39153;52.680;6.172;2024-02-26T07:13:09;4.30;99.90
53264;DHT22;39153;52.680;6.172;2024-02-26T07:15:34;4.30;99.90
53264;DHT22;39153;52.680;6.172;2024-02-26T07:18:00;4.20;99.90
53264;DHT22;39153;52.680;6.172;2024-02-26T07:20:31;4.40;99.90
53264;DHT22;39153;52.680;6.172;2024-02-26T07:22:57;3.90;99.90
53264;DHT22;39153;52.680;6.172;2024-02-26T07:25:23;4.30;99.90
53264;DHT22;39153;52.680;6.172;2024-02-26T07:27:50;3.90;99.90
53264;DHT22;39153;52.680;6.172;2024-02-26T07:30:16;4.10;99.90
53264;DHT22;39153;52.680;6.172;2024-02-26T07:32:42;3.90;99.90
53264;DHT22;39153;52.680;6.172;2024-02-26T07:35:08;3.90;99.90
53264;DHT22;39153;52.680;6.172;2024-02-26T07:37:34;4.20;99.90
53264;DHT22;39153;52.680;6.172;2024-02-26T07:40:00;3.90;99.90
53264;DHT22;39153;52.680;6.172;2024-02-26T07:42:26;4.00;99.90
53264;DHT22;39153;52.680;6.172;2024-02-26T07:44:52;4.20;99.90
53264;DHT22;39153;52.680;6.172;2024-02-26T07:47:18;4.30;99.90
53264;DHT22;39153;52.680;6.172;2024-02-26T07:49:44;4.30;99.90
53264;DHT22;39153;52.680;6.172;2024-02-26T07:52:10;4.20;99.90
53264;DHT22;39153;52.680;6.172;2024-02-26T07:54:36;4.30;99.90
53264;DHT22;39153;52.680;6.172;2024-02-26T07:57:01;4.30;99.90
53264;DHT22;39153;52.680;6.172;2024-02-26T07:59:31;4.30;99.90
53264;DHT22;39153;52.680;6.172;2024-02-26T08:01:56;4.10;99.90
53264;DHT22;39153;52.680;6.172;2024-02-26T08:04:22;4.30;99.90
53264;DHT22;39153;52.680;6.172;2024-02-26T08:06:48;4.30;99.90
53264;DHT22;39153;52.680;6.172;2024-02-26T08:09:13;4.20;99.90
53264;DHT22;39153;52.680;6.172;2024-02-26T08:11:39;4.40;99.90
53264;DHT22;39153;52.680;6.172;2024-02-26T08:14:05;4.20;99.90
53264;DHT22;39153;52.680;6.172;2024-02-26T08:16:30;4.20;99.90
53264;DHT22;39153;52.680;6.172;2024-02-26T08:18:56;4.50;99.90
53264;DHT22;39153;52.680;6.172;2024-02-26T08:21:22;4.60;99.90
53264;DHT22;39153;52.680;6.172;2024-02-26T08:23:47;4.30;99.90
53264;DHT22;39153;52.680;6.172;2024-02-26T08:26:13;4.50;99.90
53264;DHT22;39153;52.680;6.172;2024-02-26T08:28:39;4.30;99.90
53264;DHT22;39153;52.680;6.172;2024-02-26T08:31:04;4.50;99.90
53264;DHT22;39153;52.680;6.172;2024-02-26T08:33:30;4.40;99.90
53264;DHT22;39153;52.680;6.172;2024-02-26T08:35:56;4.60;99.90
53264;DHT22;39153;52.680;6.172;2024-02-26T08:38:22;4.50;99.90
53264;DHT22;39153;52.680;6.172;2024-02-26T08:40:48;4.60;99.90
53264;DHT22;39153;52.680;6.172;2024-02-26T08:43:14;4.60;99.90
53264;DHT22;39153;52.680;6.172;2024-02-26T08:45:40;4.70;99.90
53264;DHT22;39153;52.680;6.172;2024-02-26T08:48:06;4.50;99.90
53264;DHT22;39153;52.680;6.172;2024-02-26T08:50:33;4.70;99.90
53264;DHT22;39153;52.680;6.172;2024-02-26T08:52:58;4.80;99.90
53264;DHT22;39153;52.680;6.172;2024-02-26T08:55:26;4.70;99.90
53264;DHT22;39153;52.680;6.172;2024-02-26T08:57:52;4.90;99.90
53264;DHT22;39153;52.680;6.172;2024-02-26T09:00:18;4.70;99.90
53264;DHT22;39153;52.680;6.172;2024-02-26T09:02:49;4.80;99.90
53264;DHT22;39153;52.680;6.172;2024-02-26T09:05:15;4.90;99.90
53264;DHT22;39153;52.680;6.172;2024-02-26T09:07:41;4.90;99.90
53264;DHT22;39153;52.680;6.172;2024-02-26T09:10:07;4.90;99.90
53264;DHT22;39153;52.680;6.172;2024-02-26T09:12:36;4.90;99.90
53264;DHT22;39153;52.680;6.172;2024-02-26T09:15:03;4.80;99.90
53264;DHT22;39153;52.680;6.172;2024-02-26T09:17:28;4.90;99.90
53264;DHT22;39153;52.680;6.172;2024-02-26T09:19:54;4.90;99.90
53264;DHT22;39153;52.680;6.172;2024-02-26T09:22:20;4.90;99.90
53264;DHT22;39153;52.680;6.172;2024-02-26T09:24:46;5.00;99.90
53264;DHT22;39153;52.680;6.172;2024-02-26T09:27:11;5.00;99.90
53264;DHT22;39153;52.680;6.172;2024-02-26T09:29:37;5.00;99.90
53264;DHT22;39153;52.680;6.172;2024-02-26T09:32:03;5.10;99.90
53264;DHT22;39153;52.680;6.172;2024-02-26T09:34:29;4.90;99.90
53264;DHT22;39153;52.680;6.172;2024-02-26T09:36:54;5.10;99.90
53264;DHT22;39153;52.680;6.172;2024-02-26T09:39:20;5.00;99.90
53264;DHT22;39153;52.680;6.172;2024-02-26T09:41:48;5.10;99.90
53264;DHT22;39153;52.680;6.172;2024-02-26T09:44:18;5.10;99.90
53264;DHT22;39153;52.680;6.172;2024-02-26T09:46:48;5.10;99.90
53264;DHT22;39153;52.680;6.172;2024-02-26T09:49:17;5.00;99.90
53264;DHT22;39153;52.680;6.172;2024-02-26T09:51:44;5.10;99.90
53264;DHT22;39153;52.680;6.172;2024-02-26T09:54:09;5.10;99.90
53264;DHT22;39153;52.680;6.172;2024-02-26T09:56:39;5.20;99.90
53264;DHT22;39153;52.680;6.172;2024-02-26T09:59:16;5.20;99.90
53264;DHT22;39153;52.680;6.172;2024-02-26T10:01:44;5.10;99.90
53264;DHT22;39153;52.680;6.172;2024-02-26T10:04:12;5.30;99.90
53264;DHT22;39153;52.680;6.172;2024-02-26T10:06:38;5.30;99.90
53264;DHT22;39153;52.680;6.172;2024-02-26T10:09:05;5.20;99.90
53264;DHT22;39153;52.680;6.172;2024-02-26T10:11:35;5.30;99.90
53264;DHT22;39153;52.680;6.172;2024-02-26T10:14:01;5.40;99.90
53264;DHT22;39153;52.680;6.172;2024-02-26T10:16:27;5.30;99.90
53264;DHT22;39153;52.680;6.172;2024-02-26T10:18:53;5.30;99.90
53264;DHT22;39153;52.680;6.172;2024-02-26T10:21:20;5.40;99.90
53264;DHT22;39153;52.680;6.172;2024-02-26T10:23:47;5.60;99.90
53264;DHT22;39153;52.680;6.172;2024-02-26T10:26:13;5.30;99.90
53264;DHT22;39153;52.680;6.172;2024-02-26T10:28:41;5.50;99.90
53264;DHT22;39153;52.680;6.172;2024-02-26T10:31:07;5.60;99.90
53264;DHT22;39153;52.680;6.172;2024-02-26T10:33:34;5.50;99.90
53264;DHT22;39153;52.680;6.172;2024-02-26T10:36:04;5.50;99.90
53264;DHT22;39153;52.680;6.172;2024-02-26T10:38:32;5.50;99.90
53264;DHT22;39153;52.680;6.172;2024-02-26T10:40:57;5.50;99.90
53264;DHT22;39153;52.680;6.172;2024-02-26T10:43:25;5.60;99.90
53264;DHT22;39153;52.680;6.172;2024-02-26T10:45:51;5.60;99.90
53264;DHT22;39153;52.680;6.172;2024-02-26T10:48:17;5.60;99.90
53264;DHT22;39153;52.680;6.172;2024-02-26T10:50:44;5.70;99.90
53264;DHT22;39153;52.680;6.172;2024-02-26T10:53:30;5.80;99.90
53264;DHT22;39153;52.680;6.172;2024-02-26T10:56:04;6.10;99.90
53264;DHT22;39153;52.680;6.172;2024-02-26T10:58:33;5.80;99.90
53264;DHT22;39153;52.680;6.172;2024-02-26T11:01:00;5.80;99.90
53264;DHT22;39153;52.680;6.172;2024-02-26T11:03:26;5.90;99.90
53264;DHT22;39153;52.680;6.172;2024-02-26T11:05:52;5.90;99.90
53264;DHT22;39153;52.680;6.172;2024-02-26T11:08:19;5.80;99.90
53264;DHT22;39153;52.680;6.172;2024-02-26T11:10:52;5.90;99.90
53264;DHT22;39153;52.680;6.172;2024-02-26T11:13:19;6.00;99.90
53264;DHT22;39153;52.680;6.172;2024-02-26T11:15:48;6.00;99.90
53264;DHT22;39153;52.680;6.172;2024-02-26T11:18:19;6.00;99.90
53264;DHT22;39153;52.680;6.172;2024-02-26T11:20:46;5.90;99.90
53264;DHT22;39153;52.680;6.172;2024-02-26T11:23:11;5.90;99.90
53264;DHT22;39153;52.680;6.172;2024-02-26T11:25:37;5.90;99.90
53264;DHT22;39153;52.680;6.172;2024-02-26T11:28:09;6.00;99.90
53264;DHT22;39153;52.680;6.172;2024-02-26T11:30:38;5.90;99.90
53264;DHT22;39153;52.680;6.172;2024-02-26T11:33:09;5.90;99.90
53264;DHT22;39153;52.680;6.172;2024-02-26T11:35:36;6.00;99.90
53264;DHT22;39153;52.680;6.172;2024-02-26T11:38:03;6.00;99.90
53264;DHT22;39153;52.680;6.172;2024-02-26T11:40:33;6.00;99.90
53264;DHT22;39153;52.680;6.172;2024-02-26T11:42:59;6.00;99.90
53264;DHT22;39153;52.680;6.172;2024-02-26T11:48:12;6.10;99.90
53264;DHT22;39153;52.680;6.172;2024-02-26T11:50:42;6.10;99.90
53264;DHT22;39153;52.680;6.172;2024-02-26T11:53:25;6.20;99.90
53264;DHT22;39153;52.680;6.172;2024-02-26T11:58:40;6.10;99.90
53264;DHT22;39153;52.680;6.172;2024-02-26T12:01:35;6.10;99.90
53264;DHT22;39153;52.680;6.172;2024-02-26T12:03:54;6.10;99.90
53264;DHT22;39153;52.680;6.172;2024-02-26T12:06:20;6.20;99.90
53264;DHT22;39153;52.680;6.172;2024-02-26T12:08:46;6.10;99.90
53264;DHT22;39153;52.680;6.172;2024-02-26T12:11:15;6.20;99.90
53264;DHT22;39153;52.680;6.172;2024-02-26T12:13:42;6.20;99.90
53264;DHT22;39153;52.680;6.172;2024-02-26T12:16:08;6.20;99.90
53264;DHT22;39153;52.680;6.172;2024-02-26T12:18:34;6.20;99.90
53264;DHT22;39153;52.680;6.172;2024-02-26T12:21:01;6.20;99.90
53264;DHT22;39153;52.680;6.172;2024-02-26T12:23:27;6.20;99.90
53264;DHT22;39153;52.680;6.172;2024-02-26T12:25:58;6.30;99.90
53264;DHT22;39153;52.680;6.172;2024-02-26T12:28:28;6.30;99.90
53264;DHT22;39153;52.680;6.172;2024-02-26T12:30:54;6.30;99.90
53264;DHT22;39153;52.680;6.172;2024-02-26T12:33:20;6.30;99.90
53264;DHT22;39153;52.680;6.172;2024-02-26T12:35:46;6.20;99.90
53264;DHT22;39153;52.680;6.172;2024-02-26T12:38:15;6.30;99.90
53264;DHT22;39153;52.680;6.172;2024-02-26T12:40:41;6.30;99.90
53264;DHT22;39153;52.680;6.172;2024-02-26T12:43:07;6.30;99.90
53264;DHT22;39153;52.680;6.172;2024-02-26T12:45:40;6.40;99.90
53264;DHT22;39153;52.680;6.172;2024-02-26T12:48:07;6.30;99.90
53264;DHT22;39153;52.680;6.172;2024-02-26T12:50:32;6.30;99.90
53264;DHT22;39153;52.680;6.172;2024-02-26T12:52:59;6.30;99.90
53264;DHT22;39153;52.680;6.172;2024-02-26T12:55:25;6.30;99.90
53264;DHT22;39153;52.680;6.172;2024-02-26T12:57:52;6.30;99.90
53264;DHT22;39153;52.680;6.172;2024-02-26T13:00:24;6.30;99.90
53264;DHT22;39153;52.680;6.172;2024-02-26T13:02:50;6.30;99.90
53264;DHT22;39153;52.680;6.172;2024-02-26T13:05:18;6.40;99.90
53264;DHT22;39153;52.680;6.172;2024-02-26T13:07:45;6.40;99.90
53264;DHT22;39153;52.680;6.172;2024-02-26T13:10:13;6.40;99.90
53264;DHT22;39153;52.680;6.172;2024-02-26T13:12:48;6.40;99.90
53264;DHT22;39153;52.680;6.172;2024-02-26T13:15:17;6.50;99.90
53264;DHT22;39153;52.680;6.172;2024-02-26T13:17:44;6.50;99.90
53264;DHT22;39153;52.680;6.172;2024-02-26T13:20:10;6.40;99.90
53264;DHT22;39153;52.680;6.172;2024-02-26T13:22:36;6.40;99.90
53264;DHT22;39153;52.680;6.172;2024-02-26T13:25:02;6.70;99.90
53264;DHT22;39153;52.680;6.172;2024-02-26T13:27:29;6.50;99.90
53264;DHT22;39153;52.680;6.172;2024-02-26T13:30:11;6.40;99.90
53264;DHT22;39153;52.680;6.172;2024-02-26T13:32:39;6.50;99.90
53264;DHT22;39153;52.680;6.172;2024-02-26T13:35:12;6.40;99.90
53264;DHT22;39153;52.680;6.172;2024-02-26T13:37:39;6.40;99.90
53264;DHT22;39153;52.680;6.172;2024-02-26T13:40:06;6.40;99.90
53264;DHT22;39153;52.680;6.172;2024-02-26T13:42:32;6.40;99.90
53264;DHT22;39153;52.680;6.172;2024-02-26T13:44:58;6.40;99.90
53264;DHT22;39153;52.680;6.172;2024-02-26T13:47:24;6.40;99.90
53264;DHT22;39153;52.680;6.172;2024-02-26T13:49:50;6.40;99.90
53264;DHT22;39153;52.680;6.172;2024-02-26T13:52:15;6.40;99.90
53264;DHT22;39153;52.680;6.172;2024-02-26T13:54:41;6.50;99.90
53264;DHT22;39153;52.680;6.172;2024-02-26T13:57:07;6.40;99.90
53264;DHT22;39153;52.680;6.172;2024-02-26T13:59:34;6.40;99.90
53264;DHT22;39153;52.680;6.172;2024-02-26T14:01:59;6.40;99.90
53264;DHT22;39153;52.680;6.172;2024-02-26T14:04:25;6.40;99.90
53264;DHT22;39153;52.680;6.172;2024-02-26T14:06:51;6.50;99.90
53264;DHT22;39153;52.680;6.172;2024-02-26T14:09:16;6.50;99.90
53264;DHT22;39153;52.680;6.172;2024-02-26T14:11:47;6.50;99.90
53264;DHT22;39153;52.680;6.172;2024-02-26T14:14:13;6.60;99.90
53264;DHT22;39153;52.680;6.172;2024-02-26T14:16:39;6.50;99.90
53264;DHT22;39153;52.680;6.172;2024-02-26T14:19:05;6.50;99.90
53264;DHT22;39153;52.680;6.172;2024-02-26T14:21:30;6.50;99.90
53264;DHT22;39153;52.680;6.172;2024-02-26T14:23:57;6.40;99.90
53264;DHT22;39153;52.680;6.172;2024-02-26T14:26:23;6.40;99.90
53264;DHT22;39153;52.680;6.172;2024-02-26T14:28:49;6.40;99.90
53264;DHT22;39153;52.680;6.172;2024-02-26T14:31:18;6.40;99.90
53264;DHT22;39153;52.680;6.172;2024-02-26T14:33:44;6.40;99.90
53264;DHT22;39153;52.680;6.172;2024-02-26T14:36:10;6.50;99.90
53264;DHT22;39153;52.680;6.172;2024-02-26T14:38:37;6.40;99.90
53264;DHT22;39153;52.680;6.172;2024-02-26T14:41:04;6.30;99.90
53264;DHT22;39153;52.680;6.172;2024-02-26T14:43:30;6.30;99.90
53264;DHT22;39153;52.680;6.172;2024-02-26T14:45:58;6.20;99.90
53264;DHT22;39153;52.680;6.172;2024-02-26T14:48:24;6.20;99.90
53264;DHT22;39153;52.680;6.172;2024-02-26T14:50:50;6.20;99.90
53264;DHT22;39153;52.680;6.172;2024-02-26T14:53:16;6.20;99.90
53264;DHT22;39153;52.680;6.172;2024-02-26T14:55:42;6.20;99.90
53264;DHT22;39153;52.680;6.172;2024-02-26T14:58:08;6.20;99.90
53264;DHT22;39153;52.680;6.172;2024-02-26T15:00:39;6.10;99.90
53264;DHT22;39153;52.680;6.172;2024-02-26T15:03:05;6.20;99.90
53264;DHT22;39153;52.680;6.172;2024-02-26T15:05:32;6.10;99.90
53264;DHT22;39153;52.680;6.172;2024-02-26T15:07:58;6.10;99.90
53264;DHT22;39153;52.680;6.172;2024-02-26T15:10:24;6.20;99.90
53264;DHT22;39153;52.680;6.172;2024-02-26T15:12:51;6.10;99.90
53264;DHT22;39153;52.680;6.172;2024-02-26T15:15:20;6.10;99.90
53264;DHT22;39153;52.680;6.172;2024-02-26T15:17:47;6.10;99.90
53264;DHT22;39153;52.680;6.172;2024-02-26T15:20:14;6.10;99.90
53264;DHT22;39153;52.680;6.172;2024-02-26T15:22:40;6.00;99.90
53264;DHT22;39153;52.680;6.172;2024-02-26T15:25:07;6.00;99.90
53264;DHT22;39153;52.680;6.172;2024-02-26T15:27:33;6.00;99.90
53264;DHT22;39153;52.680;6.172;2024-02-26T15:30:00;6.00;99.90
53264;DHT22;39153;52.680;6.172;2024-02-26T15:32:26;6.00;99.90
53264;DHT22;39153;52.680;6.172;2024-02-26T15:34:53;6.10;99.90
53264;DHT22;39153;52.680;6.172;2024-02-26T15:37:19;6.00;99.90
53264;DHT22;39153;52.680;6.172;2024-02-26T15:39:44;5.90;99.90
53264;DHT22;39153;52.680;6.172;2024-02-26T15:42:11;5.90;99.90
53264;DHT22;39153;52.680;6.172;2024-02-26T15:44:37;6.00;99.90
53264;DHT22;39153;52.680;6.172;2024-02-26T15:47:04;5.90;99.90